createdAt,value
2023-10-19T00:01:56.714Z,35.72
2023-10-19T00:04:00.634Z,35.17
2023-10-19T00:06:04.134Z,34.47
2023-10-19T00:08:14.750Z,33.35
2023-10-19T00:10:18.350Z,34.00
2023-10-19T00:12:23.746Z,33.70
2023-10-19T00:16:30.989Z,33.65
2023-10-19T00:18:36.034Z,32.95
2023-10-19T00:20:47.841Z,33.30
2023-10-19T00:22:50.907Z,33.28
2023-10-19T00:24:55.430Z,34.30
2023-10-19T00:26:58.577Z,34.23
2023-10-19T00:29:15.789Z,35.20
2023-10-19T00:31:21.608Z,34.67
2023-10-19T00:33:30.008Z,33.42
2023-10-19T00:35:43.760Z,32.83
2023-10-19T00:37:46.722Z,34.35
2023-10-19T00:39:55.302Z,35.28
2023-10-19T00:42:00.082Z,34.95
2023-10-19T00:44:12.762Z,34.20
2023-10-19T00:46:21.824Z,35.40
2023-10-19T00:48:27.764Z,33.95
2023-10-19T00:50:32.685Z,35.00
2023-10-19T00:52:44.911Z,35.22
2023-10-19T00:54:52.454Z,33.88
2023-10-19T00:57:00.390Z,34.08
2023-10-19T00:59:15.913Z,34.08
2023-10-19T01:01:25.304Z,32.60
2023-10-19T01:03:34.089Z,33.15
2023-10-19T01:05:37.728Z,31.38
2023-10-19T01:07:42.442Z,32.65
2023-10-19T01:09:46.044Z,32.80
2023-10-19T01:11:53.881Z,34.70
2023-10-19T01:13:57.040Z,33.38
2023-10-19T01:16:02.151Z,32.10
2023-10-19T01:18:07.053Z,33.33
2023-10-19T01:20:30.136Z,32.47
2023-10-19T01:22:33.225Z,31.38
2023-10-19T01:24:44.074Z,32.83
2023-10-19T01:26:48.855Z,31.42
2023-10-19T01:28:53.899Z,31.63
2023-10-19T01:30:57.173Z,33.30
2023-10-19T01:33:00.215Z,32.22
2023-10-19T01:35:03.457Z,31.95
2023-10-19T01:37:06.416Z,32.05
2023-10-19T01:39:12.977Z,30.30
2023-10-19T01:41:20.610Z,31.48
2023-10-19T01:43:23.697Z,32.03
2023-10-19T01:45:26.877Z,31.13
2023-10-19T01:47:30.208Z,31.25
2023-10-19T01:49:33.199Z,32.78
2023-10-19T01:51:45.044Z,31.50
2023-10-19T01:53:48.715Z,31.92
2023-10-19T01:55:58.885Z,32.13
2023-10-19T01:58:03.640Z,31.52
2023-10-19T02:00:12.841Z,31.33
2023-10-19T02:02:17.294Z,31.42
2023-10-19T02:04:23.225Z,29.27
2023-10-19T02:06:36.411Z,30.48
2023-10-19T02:08:41.973Z,31.33
2023-10-19T02:12:56.721Z,29.90
2023-10-19T02:15:12.403Z,31.60
2023-10-19T02:17:16.631Z,30.33
2023-10-19T02:19:21.567Z,29.77
2023-10-19T02:21:28.572Z,29.88
2023-10-19T02:23:31.471Z,29.30
2023-10-19T02:25:38.185Z,29.90
2023-10-19T02:27:41.182Z,29.83
2023-10-19T02:29:44.240Z,29.52
2023-10-19T02:31:49.580Z,29.17
2023-10-19T02:33:54.207Z,29.92
2023-10-19T02:35:58.625Z,30.40
2023-10-19T02:38:01.549Z,29.55
2023-10-19T02:40:13.829Z,30.30
2023-10-19T02:42:16.917Z,29.65
2023-10-19T02:44:23.600Z,30.88
2023-10-19T02:46:27.386Z,30.17
2023-10-19T02:48:32.608Z,30.58
2023-10-19T02:50:37.207Z,30.67
2023-10-19T02:52:40.229Z,31.52
2023-10-19T02:54:43.284Z,30.83
2023-10-19T02:56:53.580Z,31.60
2023-10-19T02:59:03.692Z,31.92
2023-10-19T03:01:19.015Z,31.70
2023-10-19T03:03:22.398Z,31.43
2023-10-19T03:05:27.790Z,33.63
2023-10-19T03:07:31.488Z,31.73
2023-10-19T03:09:37.974Z,31.48
2023-10-19T03:11:42.554Z,29.30
2023-10-19T03:13:45.593Z,30.58
2023-10-19T03:15:50.139Z,30.33
2023-10-19T03:17:53.073Z,31.58
2023-10-19T03:19:57.258Z,31.15
2023-10-19T03:22:02.353Z,31.42
2023-10-19T03:24:06.941Z,30.90
2023-10-19T03:26:48.280Z,30.48
2023-10-19T03:28:56.433Z,29.98
2023-10-19T03:31:00.945Z,29.95
2023-10-19T03:35:08.802Z,29.02
2023-10-19T03:37:16.581Z,29.67
2023-10-19T03:39:19.679Z,29.63
2023-10-19T03:41:27.449Z,27.42
2023-10-19T03:43:31.181Z,30.77
2023-10-19T03:45:40.201Z,30.13
2023-10-19T03:47:46.110Z,30.38
2023-10-19T03:49:50.373Z,30.08
2023-10-19T03:52:22.266Z,30.13
2023-10-19T03:54:28.454Z,29.65
2023-10-19T03:56:34.313Z,30.58
2023-10-19T03:58:37.407Z,29.88
2023-10-19T04:00:40.540Z,29.27
2023-10-19T04:02:44.100Z,28.40
2023-10-19T04:04:50.194Z,27.08
2023-10-19T04:06:59.381Z,28.52
2023-10-19T04:09:02.581Z,28.17
2023-10-19T04:11:34.017Z,29.05
2023-10-19T04:13:39.962Z,28.60
2023-10-19T04:15:43.255Z,29.45
2023-10-19T04:17:47.090Z,28.08
2023-10-19T04:19:57.126Z,27.80
2023-10-19T04:22:00.199Z,28.70
2023-10-19T04:24:03.185Z,28.02
2023-10-19T04:26:12.318Z,28.42
2023-10-19T04:28:15.645Z,26.90
2023-10-19T04:30:19.824Z,26.73
2023-10-19T04:32:28.740Z,27.42
2023-10-19T04:34:31.904Z,26.77
2023-10-19T04:36:35.547Z,27.35
2023-10-19T04:38:39.184Z,27.27
2023-10-19T04:40:42.306Z,26.60
2023-10-19T04:42:47.487Z,26.17
2023-10-19T04:44:50.482Z,25.40
2023-10-19T04:46:54.328Z,27.70
2023-10-19T04:48:57.655Z,25.15
2023-10-19T04:51:00.607Z,26.95
2023-10-19T04:53:03.821Z,28.05
2023-10-19T04:55:07.737Z,25.75
2023-10-19T04:57:12.327Z,26.50
2023-10-19T04:59:16.682Z,26.60
2023-10-19T05:01:19.691Z,25.90
2023-10-19T05:03:23.034Z,23.50
2023-10-19T05:05:26.065Z,24.33
2023-10-19T05:07:30.468Z,24.75
2023-10-19T05:09:33.817Z,25.90
2023-10-19T05:11:37.273Z,24.98
2023-10-19T05:13:40.588Z,26.70
2023-10-19T05:15:45.257Z,25.90
2023-10-19T05:17:49.224Z,25.25
2023-10-19T05:19:52.270Z,25.65
2023-10-19T05:21:55.166Z,25.38
2023-10-19T05:23:58.600Z,24.92
2023-10-19T05:26:03.942Z,23.63
2023-10-19T05:30:11.801Z,25.25
2023-10-19T05:32:16.510Z,25.70
2023-10-19T05:34:20.445Z,25.33
2023-10-19T05:36:23.417Z,23.85
2023-10-19T05:38:26.614Z,24.15
2023-10-19T05:40:32.462Z,25.92
2023-10-19T05:42:36.246Z,25.67
2023-10-19T05:44:39.196Z,26.60
2023-10-19T05:46:42.787Z,28.35
2023-10-19T05:48:47.367Z,28.75
2023-10-19T05:50:51.161Z,27.13
2023-10-19T05:52:57.068Z,26.15
2023-10-19T05:55:01.299Z,26.77
2023-10-19T05:57:09.136Z,25.80
2023-10-19T05:59:12.045Z,25.98
2023-10-19T06:01:15.325Z,24.23
2023-10-19T06:03:18.264Z,26.30
2023-10-19T06:05:22.882Z,25.67
2023-10-19T06:07:26.491Z,24.67
2023-10-19T06:09:32.139Z,26.00
2023-10-19T06:11:36.111Z,25.70
2023-10-19T06:13:39.302Z,25.80
2023-10-19T06:15:42.753Z,25.15
2023-10-19T06:17:47.414Z,26.52
2023-10-19T06:19:50.862Z,24.67
2023-10-19T06:21:55.436Z,24.65
2023-10-19T06:23:59.858Z,23.38
2023-10-19T06:26:12.702Z,23.45
2023-10-19T06:28:16.866Z,21.90
2023-10-19T06:30:20.917Z,23.48
2023-10-19T06:32:23.902Z,22.33
2023-10-19T06:34:28.721Z,22.25
2023-10-19T06:36:31.752Z,22.77
2023-10-19T06:38:36.314Z,21.40
2023-10-19T06:40:39.356Z,21.02
2023-10-19T06:42:42.568Z,21.05
2023-10-19T06:44:46.263Z,21.60
2023-10-19T06:46:49.257Z,21.52
2023-10-19T06:48:52.872Z,20.88
2023-10-19T06:50:57.671Z,20.02
2023-10-19T06:53:00.667Z,21.50
2023-10-19T06:55:06.414Z,21.58
2023-10-19T06:57:09.681Z,20.50
2023-10-19T06:59:12.776Z,19.42
2023-10-19T07:01:19.323Z,20.15
2023-10-19T07:03:22.393Z,19.98
2023-10-19T07:05:25.801Z,20.83
2023-10-19T07:07:29.134Z,20.23
2023-10-19T07:09:32.674Z,20.50
2023-10-19T07:11:37.246Z,19.33
2023-10-19T07:13:41.378Z,19.70
2023-10-19T07:15:47.292Z,20.00
2023-10-19T07:17:51.782Z,19.63
2023-10-19T07:19:55.240Z,19.95
2023-10-19T07:22:05.603Z,18.77
2023-10-19T07:24:11.315Z,19.95
2023-10-19T07:26:15.814Z,19.42
2023-10-19T07:28:21.236Z,19.10
2023-10-19T07:30:28.113Z,18.35
2023-10-19T07:32:31.184Z,19.25
2023-10-19T07:34:36.185Z,18.88
2023-10-19T07:36:39.257Z,19.00
2023-10-19T07:38:43.640Z,19.20
2023-10-19T07:40:46.862Z,19.95
2023-10-19T07:42:54.062Z,20.17
2023-10-19T07:44:58.944Z,17.92
2023-10-19T07:47:02.017Z,18.23
2023-10-19T07:49:05.294Z,19.25
2023-10-19T07:51:12.695Z,19.08
2023-10-19T07:53:15.762Z,21.13
2023-10-19T07:55:19.505Z,19.63
2023-10-19T07:57:22.696Z,19.50
2023-10-19T07:59:25.616Z,19.20
2023-10-19T08:01:30.359Z,19.30
2023-10-19T08:03:33.312Z,19.67
2023-10-19T08:05:37.734Z,19.05
2023-10-19T08:07:48.673Z,19.23
2023-10-19T08:09:51.758Z,20.40
2023-10-19T08:11:57.135Z,20.08
2023-10-19T08:14:01.551Z,19.30
2023-10-19T08:16:05.056Z,19.17
2023-10-19T08:18:09.605Z,18.75
2023-10-19T08:20:32.557Z,18.98
2023-10-19T08:22:38.179Z,19.92
2023-10-19T08:24:46.709Z,18.83
2023-10-19T08:26:50.401Z,19.00
2023-10-19T08:28:53.433Z,20.05
2023-10-19T08:30:59.393Z,20.27
2023-10-19T08:33:03.328Z,19.17
2023-10-19T08:35:08.786Z,19.13
2023-10-19T08:37:12.373Z,19.50
2023-10-19T08:39:15.786Z,19.95
2023-10-19T08:41:18.725Z,19.20
2023-10-19T08:43:23.007Z,18.45
2023-10-19T08:45:27.105Z,18.85
2023-10-19T08:47:31.113Z,20.23
2023-10-19T08:49:34.181Z,18.63
2023-10-19T08:51:39.942Z,18.83
2023-10-19T08:55:50.445Z,18.67
2023-10-19T08:57:54.445Z,18.83
2023-10-19T09:00:00.218Z,19.17
2023-10-19T09:02:04.178Z,19.60
2023-10-19T09:04:07.685Z,20.23
2023-10-19T09:06:14.085Z,20.52
2023-10-19T09:08:21.617Z,19.50
2023-10-19T09:10:27.439Z,19.27
2023-10-19T09:12:30.502Z,19.40
2023-10-19T09:14:35.262Z,19.35
2023-10-19T09:16:38.491Z,19.02
2023-10-19T09:18:41.485Z,18.58
2023-10-19T09:20:55.776Z,18.08
2023-10-19T09:22:59.506Z,19.60
2023-10-19T09:25:08.215Z,18.40
2023-10-19T09:27:11.174Z,17.92
2023-10-19T09:29:20.191Z,18.00
2023-10-19T09:31:26.115Z,18.75
2023-10-19T09:33:30.800Z,17.25
2023-10-19T09:35:34.513Z,19.05
2023-10-19T09:37:37.878Z,18.33
2023-10-19T09:39:41.302Z,17.08
2023-10-19T09:41:46.438Z,16.17
2023-10-19T09:43:50.626Z,17.15
2023-10-19T09:46:00.278Z,17.30
2023-10-19T09:48:07.000Z,16.52
2023-10-19T09:50:12.518Z,16.42
2023-10-19T09:54:28.159Z,15.80
2023-10-19T09:56:37.250Z,15.20
2023-10-19T09:58:46.644Z,16.63
2023-10-19T10:00:52.807Z,15.65
2023-10-19T10:02:57.173Z,14.95
2023-10-19T10:05:01.359Z,16.42
2023-10-19T10:07:07.571Z,15.38
2023-10-19T10:09:13.244Z,16.00
2023-10-19T10:11:19.486Z,15.65
2023-10-19T10:13:43.032Z,16.13
2023-10-19T10:15:50.353Z,15.80
2023-10-19T10:17:56.565Z,17.38
2023-10-19T10:20:33.028Z,16.33
2023-10-19T10:22:36.069Z,17.27
2023-10-19T10:24:42.506Z,17.35
2023-10-19T10:27:04.806Z,17.50
2023-10-19T10:29:25.755Z,17.00
2023-10-19T10:31:28.900Z,16.70
2023-10-19T10:33:43.314Z,16.30
2023-10-19T10:35:55.606Z,16.70
2023-10-19T10:37:59.973Z,16.02
2023-10-19T10:40:03.302Z,14.77
2023-10-19T10:42:07.666Z,16.23
2023-10-19T10:44:10.605Z,16.48
2023-10-19T10:46:14.997Z,13.63
2023-10-19T10:48:19.212Z,17.85
2023-10-19T10:50:22.360Z,18.33
2023-10-19T10:52:27.170Z,17.70
2023-10-19T10:54:30.627Z,18.10
2023-10-19T10:56:41.167Z,18.30
2023-10-19T10:58:44.177Z,18.45
2023-10-19T11:00:48.705Z,19.27
2023-10-19T11:03:05.582Z,17.70
2023-10-19T11:05:13.585Z,19.13
2023-10-19T11:07:21.198Z,19.50
2023-10-19T11:09:24.485Z,18.48
2023-10-19T11:11:27.593Z,19.80
2023-10-19T11:13:32.155Z,19.30
2023-10-19T11:15:35.416Z,20.13
2023-10-19T11:17:45.036Z,19.25
2023-10-19T11:19:50.915Z,19.95
2023-10-19T11:21:58.995Z,19.15
2023-10-19T11:24:04.017Z,20.23
2023-10-19T11:26:07.311Z,21.38
2023-10-19T11:28:20.461Z,19.02
2023-10-19T11:30:27.926Z,19.73
2023-10-19T11:32:39.636Z,19.58
2023-10-19T11:34:45.787Z,21.02
2023-10-19T11:36:54.590Z,20.45
2023-10-19T11:38:57.617Z,19.17
2023-10-19T11:41:00.771Z,20.55
2023-10-19T11:43:05.227Z,19.50
2023-10-19T11:45:09.391Z,20.20
2023-10-19T11:47:12.331Z,20.65
2023-10-19T11:49:15.210Z,20.52
2023-10-19T11:51:18.351Z,20.88
2023-10-19T11:53:22.767Z,20.65
2023-10-19T11:55:26.182Z,21.05
2023-10-19T11:57:29.336Z,21.63
2023-10-19T11:59:32.306Z,21.75
2023-10-19T12:01:35.226Z,20.80
2023-10-19T12:03:38.698Z,20.73
2023-10-19T12:05:43.679Z,20.73
2023-10-19T12:07:46.967Z,20.98
2023-10-19T12:09:51.537Z,21.33
2023-10-19T12:11:57.479Z,22.27
2023-10-19T12:14:01.417Z,21.40
2023-10-19T12:16:06.520Z,21.73
2023-10-19T12:18:09.765Z,22.33
2023-10-19T12:20:15.725Z,22.10
2023-10-19T12:22:18.760Z,22.17
2023-10-19T12:24:22.619Z,21.55
2023-10-19T12:26:27.412Z,22.23
2023-10-19T12:28:30.424Z,21.48
2023-10-19T12:30:33.818Z,21.88
2023-10-19T12:32:38.375Z,22.65
2023-10-19T12:34:42.724Z,22.80
2023-10-19T12:36:48.356Z,22.23
2023-10-19T12:40:54.322Z,20.98
2023-10-19T12:42:59.180Z,20.25
2023-10-19T12:45:02.270Z,20.13
2023-10-19T12:47:05.996Z,18.73
2023-10-19T12:49:17.905Z,19.65
2023-10-19T12:51:25.084Z,20.42
2023-10-19T12:53:28.141Z,22.67
2023-10-19T12:55:32.468Z,24.10
2023-10-19T12:57:36.428Z,24.23
2023-10-19T12:59:41.337Z,25.20
2023-10-19T13:01:46.433Z,24.10
2023-10-19T13:03:53.030Z,25.60
2023-10-19T13:05:56.317Z,24.45
2023-10-19T13:07:59.897Z,26.05
2023-10-19T13:10:03.540Z,25.30
2023-10-19T13:12:09.390Z,25.52
2023-10-19T13:14:13.677Z,26.00
2023-10-19T13:16:18.231Z,26.73
2023-10-19T13:18:22.826Z,26.27
2023-10-19T13:20:27.287Z,26.10
2023-10-19T13:22:30.986Z,25.98
2023-10-19T13:24:42.487Z,27.33
2023-10-19T13:26:48.233Z,27.45
2023-10-19T13:28:54.274Z,27.33
2023-10-19T13:30:57.390Z,25.73
2023-10-19T13:33:01.786Z,25.90
2023-10-19T13:35:05.352Z,26.15
2023-10-19T13:37:09.601Z,25.10
2023-10-19T13:39:18.184Z,26.17
2023-10-19T13:41:21.863Z,26.67
2023-10-19T13:43:46.554Z,26.52
2023-10-19T13:45:50.408Z,26.80
2023-10-19T13:47:56.677Z,26.38
2023-10-19T13:50:02.119Z,25.95
2023-10-19T13:54:08.823Z,25.90
2023-10-19T13:56:12.403Z,26.30
2023-10-19T13:58:15.333Z,25.50
2023-10-19T14:00:31.873Z,26.55
2023-10-19T14:02:34.992Z,25.65
2023-10-19T14:04:38.180Z,25.83
2023-10-19T14:06:43.823Z,25.88
2023-10-19T14:08:46.916Z,27.02
2023-10-19T14:10:49.950Z,26.45
2023-10-19T14:12:55.272Z,27.27
2023-10-19T14:17:02.170Z,26.15
2023-10-19T14:19:05.721Z,26.10
2023-10-19T14:21:16.098Z,27.52
2023-10-19T14:23:20.578Z,26.08
2023-10-19T14:25:28.018Z,26.13
2023-10-19T14:27:31.834Z,26.42
2023-10-19T14:29:34.790Z,27.58
2023-10-19T14:31:37.766Z,24.95
2023-10-19T14:33:41.211Z,25.90
2023-10-19T14:35:44.161Z,26.08
2023-10-19T14:37:49.381Z,26.20
2023-10-19T14:39:54.888Z,26.63
2023-10-19T14:44:02.091Z,22.05
2023-10-19T14:46:07.841Z,24.25
2023-10-19T14:48:12.353Z,22.73
2023-10-19T14:50:16.713Z,23.53
2023-10-19T14:52:19.717Z,26.73
2023-10-19T14:54:22.677Z,26.73
2023-10-19T14:56:27.697Z,26.50
2023-10-19T14:58:33.279Z,25.73
2023-10-19T15:02:40.848Z,26.65
2023-10-19T15:04:45.073Z,26.75
2023-10-19T15:06:48.194Z,28.30
2023-10-19T15:08:51.282Z,28.77
2023-10-19T15:10:56.081Z,22.63
2023-10-19T15:13:00.857Z,26.70
2023-10-19T15:15:04.666Z,26.10
2023-10-19T15:17:07.649Z,27.58
2023-10-19T15:19:13.638Z,24.83
2023-10-19T15:21:16.494Z,27.35
2023-10-19T15:23:19.899Z,25.63
2023-10-19T15:25:25.784Z,27.17
2023-10-19T15:27:29.532Z,26.95
2023-10-19T15:29:33.929Z,25.77
2023-10-19T15:31:37.070Z,26.40
2023-10-19T15:33:40.291Z,25.40
2023-10-19T15:35:43.270Z,31.27
2023-10-19T15:37:50.109Z,30.67
2023-10-19T15:39:53.791Z,31.20
2023-10-19T15:41:57.550Z,30.88
2023-10-19T15:44:00.627Z,30.48
2023-10-19T15:46:05.284Z,31.17
2023-10-19T15:48:12.797Z,30.88
2023-10-19T15:50:18.717Z,31.85
2023-10-19T15:52:22.074Z,30.60
2023-10-19T15:54:25.095Z,30.45
2023-10-19T15:56:29.644Z,30.13
2023-10-19T15:58:32.673Z,30.05
2023-10-19T16:00:35.649Z,29.67
2023-10-19T16:02:40.418Z,27.77
2023-10-19T16:04:44.968Z,28.02
2023-10-19T16:06:48.157Z,27.97
2023-10-19T16:08:53.548Z,27.08
2023-10-19T16:10:57.112Z,27.60
2023-10-19T16:13:00.125Z,29.50
2023-10-19T16:15:03.377Z,29.15
2023-10-19T16:17:07.577Z,29.42
2023-10-19T16:19:12.133Z,30.23
2023-10-19T16:21:15.542Z,30.00
2023-10-19T16:23:18.457Z,32.10
2023-10-19T16:25:21.553Z,29.90
2023-10-19T16:27:24.922Z,32.35
2023-10-19T16:29:28.054Z,31.33
2023-10-19T16:31:30.970Z,32.00
2023-10-19T16:33:34.533Z,33.47
2023-10-19T16:35:40.080Z,27.90
2023-10-19T16:37:43.113Z,31.77
2023-10-19T16:39:47.495Z,33.53
2023-10-19T16:41:52.141Z,32.95
2023-10-19T16:43:55.169Z,31.08
2023-10-19T16:46:01.314Z,31.63
2023-10-19T16:48:05.151Z,31.60
2023-10-19T16:50:13.319Z,31.67
2023-10-19T16:52:17.810Z,31.58
2023-10-19T16:54:20.950Z,32.05
2023-10-19T16:56:23.947Z,31.65
2023-10-19T16:58:26.928Z,31.88
2023-10-19T17:00:33.208Z,32.00
2023-10-19T17:02:36.814Z,31.83
2023-10-19T17:04:41.859Z,32.58
2023-10-19T17:06:45.068Z,31.75
2023-10-19T17:08:50.516Z,29.85
2023-10-19T17:12:57.302Z,30.55
2023-10-19T17:15:00.397Z,28.83
2023-10-19T17:17:04.549Z,29.20
2023-10-19T17:19:08.127Z,28.48
2023-10-19T17:21:11.060Z,29.65
2023-10-19T17:23:14.196Z,29.35
2023-10-19T17:25:18.819Z,29.25
2023-10-19T17:27:21.855Z,29.92
2023-10-19T17:29:27.461Z,28.85
2023-10-19T17:31:31.031Z,29.40
2023-10-19T17:33:34.219Z,27.10
2023-10-19T17:35:39.564Z,27.60
2023-10-19T17:37:42.610Z,26.98
2023-10-19T17:39:45.751Z,29.13
2023-10-19T17:41:50.146Z,28.58
2023-10-19T17:43:54.411Z,29.70
2023-10-19T17:45:57.380Z,29.48
2023-10-19T17:48:00.566Z,28.63
2023-10-19T17:50:03.716Z,28.45
2023-10-19T17:52:07.450Z,27.63
2023-10-19T17:54:12.398Z,28.35
2023-10-19T17:56:15.448Z,28.45
2023-10-19T17:58:19.939Z,27.80
2023-10-19T18:00:23.134Z,28.70
2023-10-19T18:02:26.706Z,26.98
2023-10-19T18:04:30.089Z,29.83
2023-10-19T18:06:33.211Z,30.55
2023-10-19T18:08:37.094Z,27.70
2023-10-19T18:10:42.022Z,29.35
2023-10-19T18:12:46.090Z,26.17
2023-10-19T18:14:51.000Z,26.52
2023-10-19T18:16:54.075Z,27.60
2023-10-19T18:18:56.926Z,28.70
2023-10-19T18:21:00.099Z,27.95
2023-10-19T18:23:03.172Z,27.08
2023-10-19T18:25:07.129Z,28.13
2023-10-19T18:27:10.229Z,28.10
2023-10-19T18:29:14.508Z,28.52
2023-10-19T18:31:19.012Z,27.75
2023-10-19T18:33:23.257Z,27.30
2023-10-19T18:35:26.144Z,26.95
2023-10-19T18:37:29.150Z,25.35
2023-10-19T18:39:32.090Z,26.75
2023-10-19T18:41:35.137Z,27.55
2023-10-19T18:43:38.238Z,26.80
2023-10-19T18:45:41.179Z,29.83
2023-10-19T18:47:45.728Z,27.23
2023-10-19T18:49:49.099Z,26.45
2023-10-19T18:51:52.122Z,27.73
2023-10-19T18:53:57.007Z,28.65
2023-10-19T18:56:00.110Z,28.80
2023-10-19T18:58:04.270Z,29.00
2023-10-19T19:00:08.577Z,28.08
2023-10-19T19:02:12.305Z,27.67
2023-10-19T19:04:18.251Z,27.88
2023-10-19T19:06:21.320Z,25.10
2023-10-19T19:08:24.388Z,23.55
2023-10-19T19:10:34.584Z,23.65
2023-10-19T19:12:37.611Z,24.77
2023-10-19T19:14:40.606Z,24.90
2023-10-19T19:16:45.519Z,24.70
2023-10-19T19:18:48.610Z,23.80
2023-10-19T19:20:56.160Z,28.50
2023-10-19T19:22:59.279Z,26.63
2023-10-19T19:25:02.505Z,27.15
2023-10-19T19:27:05.870Z,28.30
2023-10-19T19:29:08.911Z,26.98
2023-10-19T19:31:15.732Z,26.88
2023-10-19T19:33:18.880Z,28.20
2023-10-19T19:35:21.992Z,26.98
2023-10-19T19:37:27.204Z,28.45
2023-10-19T19:39:30.546Z,26.25
2023-10-19T19:41:33.577Z,25.33
2023-10-19T19:43:36.651Z,26.73
2023-10-19T19:45:44.325Z,25.85
2023-10-19T19:47:48.986Z,26.88
2023-10-19T19:49:51.949Z,25.83
2023-10-19T19:51:56.563Z,26.60
2023-10-19T19:54:01.032Z,25.77
2023-10-19T19:56:04.942Z,25.23
2023-10-19T19:58:07.866Z,27.80
2023-10-19T20:00:17.183Z,25.65
2023-10-19T20:02:20.186Z,25.33
2023-10-19T20:04:25.323Z,25.52
2023-10-19T20:06:28.346Z,24.88
2023-10-19T20:08:32.480Z,24.58
2023-10-19T20:10:41.062Z,25.95
2023-10-19T20:12:47.589Z,23.85
2023-10-19T20:14:50.450Z,25.35
2023-10-19T20:16:54.215Z,22.88
2023-10-19T20:18:58.375Z,23.77
2023-10-19T20:21:02.230Z,23.88
2023-10-19T20:23:05.740Z,26.52
2023-10-19T20:25:13.266Z,32.05
2023-10-19T20:27:18.274Z,31.63
2023-10-19T20:29:21.458Z,31.05
2023-10-19T20:31:27.680Z,30.50
2023-10-19T20:33:30.750Z,29.95
2023-10-19T20:35:35.118Z,31.60
2023-10-19T20:37:38.367Z,33.70
2023-10-19T20:39:41.429Z,30.77
2023-10-19T20:41:44.541Z,32.47
2023-10-19T20:43:49.730Z,31.48
2023-10-19T20:47:57.781Z,35.38
2023-10-19T20:52:04.427Z,32.75
2023-10-19T20:54:12.341Z,33.58
2023-10-19T20:56:15.734Z,32.33
2023-10-19T20:58:24.217Z,34.35
2023-10-19T21:00:28.775Z,35.38
2023-10-19T21:02:31.851Z,35.47
2023-10-19T21:04:36.147Z,36.47
2023-10-19T21:06:39.075Z,36.25
2023-10-19T21:08:42.370Z,35.58
2023-10-19T21:10:45.455Z,30.27
2023-10-19T21:12:48.344Z,29.30
2023-10-19T21:14:51.545Z,28.90
2023-10-19T21:16:56.437Z,28.77
2023-10-19T21:18:59.644Z,27.60
2023-10-19T21:21:02.985Z,32.05
2023-10-19T21:23:06.273Z,31.20
2023-10-19T21:25:12.570Z,31.48
2023-10-19T21:27:15.640Z,34.83
2023-10-19T21:29:18.489Z,35.83
2023-10-19T21:31:22.579Z,35.10
2023-10-19T21:33:28.313Z,35.78
2023-10-19T21:35:32.113Z,35.88
2023-10-19T21:37:35.571Z,34.83
2023-10-19T21:39:38.455Z,38.90
2023-10-19T21:41:41.329Z,39.42
2023-10-19T21:43:45.062Z,38.90
2023-10-19T21:45:48.637Z,38.13
2023-10-19T21:47:51.713Z,36.10
2023-10-19T21:49:56.276Z,34.78
2023-10-19T21:51:59.390Z,34.35
2023-10-19T21:54:02.296Z,35.90
2023-10-19T21:56:05.784Z,35.40
2023-10-19T21:58:08.717Z,33.00
2023-10-19T22:00:18.957Z,33.47
2023-10-19T22:02:21.955Z,33.30
2023-10-19T22:04:25.259Z,34.05
2023-10-19T22:06:29.949Z,33.10
2023-10-19T22:08:33.063Z,33.22
2023-10-19T22:10:38.580Z,32.90
2023-10-19T22:12:42.080Z,32.50
2023-10-19T22:14:45.068Z,33.28
2023-10-19T22:16:49.801Z,34.22
2023-10-19T22:18:54.388Z,33.60
2023-10-19T22:20:57.711Z,32.30
2023-10-19T22:23:02.126Z,33.25
2023-10-19T22:25:06.200Z,32.00
2023-10-19T22:27:09.140Z,33.47
2023-10-19T22:29:12.100Z,34.05
2023-10-19T22:31:15.364Z,34.75
2023-10-19T22:33:18.469Z,33.72
2023-10-19T22:35:21.586Z,33.90
2023-10-19T22:37:24.652Z,34.72
2023-10-19T22:39:29.776Z,36.20
2023-10-19T22:41:32.806Z,35.08
2023-10-19T22:43:37.034Z,34.92
2023-10-19T22:45:40.306Z,34.47
2023-10-19T22:47:44.112Z,33.97
2023-10-19T22:49:47.365Z,35.78
2023-10-19T22:51:50.253Z,33.60
2023-10-19T22:53:53.313Z,34.58
2023-10-19T22:55:57.973Z,35.15
2023-10-19T22:58:01.091Z,34.83
2023-10-19T23:00:05.140Z,36.42
2023-10-19T23:02:08.244Z,35.75
2023-10-19T23:04:11.336Z,37.50
2023-10-19T23:06:15.332Z,37.22
2023-10-19T23:08:18.338Z,36.63
2023-10-19T23:10:29.394Z,36.10
2023-10-19T23:12:35.007Z,34.83
2023-10-19T23:14:38.064Z,36.42
2023-10-19T23:16:40.934Z,37.50
2023-10-19T23:18:44.317Z,38.95
2023-10-19T23:20:56.548Z,39.17
2023-10-19T23:23:01.879Z,39.55
2023-10-19T23:25:06.628Z,38.33
2023-10-19T23:27:12.274Z,37.83
2023-10-19T23:31:25.042Z,37.47
2023-10-19T23:33:27.960Z,37.50
2023-10-19T23:35:31.018Z,38.67
2023-10-19T23:37:33.896Z,37.65
2023-10-19T23:39:39.088Z,37.65
2023-10-19T23:41:42.709Z,36.95
2023-10-19T23:43:46.039Z,38.35
2023-10-19T23:45:50.923Z,37.35
2023-10-19T23:47:54.055Z,38.33
2023-10-19T23:49:56.933Z,38.25
2023-10-19T23:52:00.312Z,37.88
2023-10-19T23:54:03.258Z,38.45
2023-10-19T23:56:06.645Z,36.72
2023-10-19T23:58:09.658Z,39.75
